sensor_id;sensor_type;location;lat;lon;timestamp;P1;durP1;ratioP1;P2;durP2;ratioP2
12267;SDS011;6196;48.398;11.736;2023-10-13T00:01:58;6.37;;;2.87;;
12267;SDS011;6196;48.398;11.736;2023-10-13T00:04:28;8.67;;;3.40;;
12267;SDS011;6196;48.398;11.736;2023-10-13T00:06:58;9.17;;;3.30;;
12267;SDS011;6196;48.398;11.736;2023-10-13T00:09:26;4.23;;;3.17;;
12267;SDS011;6196;48.398;11.736;2023-10-13T00:11:59;7.73;;;3.47;;
12267;SDS011;6196;48.398;11.736;2023-10-13T00:14:26;7.67;;;3.13;;
12267;SDS011;6196;48.398;11.736;2023-10-13T00:17:00;7.63;;;3.77;;
12267;SDS011;6196;48.398;11.736;2023-10-13T00:19:33;6.97;;;3.37;;
12267;SDS011;6196;48.398;11.736;2023-10-13T00:22:12;5.03;;;3.00;;
12267;SDS011;6196;48.398;11.736;2023-10-13T00:24:43;5.70;;;3.20;;
12267;SDS011;6196;48.398;11.736;2023-10-13T00:27:14;5.80;;;3.13;;
12267;SDS011;6196;48.398;11.736;2023-10-13T00:30:01;5.73;;;3.00;;
12267;SDS011;6196;48.398;11.736;2023-10-13T00:32:49;5.53;;;3.20;;
12267;SDS011;6196;48.398;11.736;2023-10-13T00:35:22;7.20;;;3.10;;
12267;SDS011;6196;48.398;11.736;2023-10-13T00:38:05;6.50;;;3.13;;
12267;SDS011;6196;48.398;11.736;2023-10-13T00:40:43;5.63;;;3.33;;
12267;SDS011;6196;48.398;11.736;2023-10-13T00:43:18;7.83;;;3.13;;
12267;SDS011;6196;48.398;11.736;2023-10-13T00:45:49;4.10;;;2.90;;
12267;SDS011;6196;48.398;11.736;2023-10-13T00:48:22;6.80;;;3.50;;
12267;SDS011;6196;48.398;11.736;2023-10-13T00:50:59;7.77;;;3.33;;
12267;SDS011;6196;48.398;11.736;2023-10-13T00:53:38;5.57;;;2.97;;
12267;SDS011;6196;48.398;11.736;2023-10-13T00:56:07;5.43;;;3.83;;
12267;SDS011;6196;48.398;11.736;2023-10-13T00:58:35;6.67;;;3.80;;
12267;SDS011;6196;48.398;11.736;2023-10-13T01:01:06;7.33;;;3.50;;
12267;SDS011;6196;48.398;11.736;2023-10-13T01:03:45;5.10;;;3.30;;
12267;SDS011;6196;48.398;11.736;2023-10-13T01:06:22;6.30;;;3.77;;
12267;SDS011;6196;48.398;11.736;2023-10-13T01:11:40;7.43;;;3.50;;
12267;SDS011;6196;48.398;11.736;2023-10-13T01:14:10;6.60;;;3.47;;
12267;SDS011;6196;48.398;11.736;2023-10-13T01:16:38;5.90;;;3.60;;
12267;SDS011;6196;48.398;11.736;2023-10-13T01:19:06;7.10;;;3.67;;
12267;SDS011;6196;48.398;11.736;2023-10-13T01:21:33;8.00;;;4.20;;
12267;SDS011;6196;48.398;11.736;2023-10-13T01:24:00;10.30;;;4.50;;
12267;SDS011;6196;48.398;11.736;2023-10-13T01:26:27;9.10;;;4.10;;
12267;SDS011;6196;48.398;11.736;2023-10-13T01:28:57;8.20;;;3.87;;
12267;SDS011;6196;48.398;11.736;2023-10-13T01:31:24;9.77;;;4.00;;
12267;SDS011;6196;48.398;11.736;2023-10-13T01:33:56;7.37;;;4.47;;
12267;SDS011;6196;48.398;11.736;2023-10-13T01:36:26;9.10;;;4.53;;
12267;SDS011;6196;48.398;11.736;2023-10-13T01:38:54;6.43;;;3.80;;
12267;SDS011;6196;48.398;11.736;2023-10-13T01:41:21;12.80;;;5.27;;
12267;SDS011;6196;48.398;11.736;2023-10-13T01:43:49;9.27;;;4.47;;
12267;SDS011;6196;48.398;11.736;2023-10-13T01:46:15;6.40;;;3.77;;
12267;SDS011;6196;48.398;11.736;2023-10-13T01:48:45;6.50;;;3.60;;
12267;SDS011;6196;48.398;11.736;2023-10-13T01:51:13;5.63;;;3.93;;
12267;SDS011;6196;48.398;11.736;2023-10-13T01:53:40;9.50;;;4.30;;
12267;SDS011;6196;48.398;11.736;2023-10-13T01:56:08;7.23;;;3.80;;
12267;SDS011;6196;48.398;11.736;2023-10-13T01:58:38;8.70;;;4.00;;
12267;SDS011;6196;48.398;11.736;2023-10-13T02:01:09;7.87;;;3.70;;
12267;SDS011;6196;48.398;11.736;2023-10-13T02:03:37;7.80;;;3.77;;
12267;SDS011;6196;48.398;11.736;2023-10-13T02:06:13;7.27;;;4.17;;
12267;SDS011;6196;48.398;11.736;2023-10-13T02:08:44;10.97;;;4.27;;
12267;SDS011;6196;48.398;11.736;2023-10-13T02:11:17;7.90;;;4.20;;
12267;SDS011;6196;48.398;11.736;2023-10-13T02:13:45;7.87;;;4.23;;
12267;SDS011;6196;48.398;11.736;2023-10-13T02:16:17;8.50;;;3.80;;
12267;SDS011;6196;48.398;11.736;2023-10-13T02:18:48;6.60;;;3.97;;
12267;SDS011;6196;48.398;11.736;2023-10-13T02:21:18;5.83;;;4.03;;
12267;SDS011;6196;48.398;11.736;2023-10-13T02:23:45;7.20;;;3.97;;
12267;SDS011;6196;48.398;11.736;2023-10-13T02:26:12;8.33;;;4.10;;
12267;SDS011;6196;48.398;11.736;2023-10-13T02:28:57;8.17;;;3.90;;
12267;SDS011;6196;48.398;11.736;2023-10-13T02:31:37;6.40;;;3.37;;
12267;SDS011;6196;48.398;11.736;2023-10-13T02:34:05;6.17;;;3.83;;
12267;SDS011;6196;48.398;11.736;2023-10-13T02:36:38;6.87;;;3.20;;
12267;SDS011;6196;48.398;11.736;2023-10-13T02:39:15;7.63;;;4.27;;
12267;SDS011;6196;48.398;11.736;2023-10-13T02:41:42;6.63;;;4.10;;
12267;SDS011;6196;48.398;11.736;2023-10-13T02:44:14;7.97;;;3.30;;
12267;SDS011;6196;48.398;11.736;2023-10-13T02:47:02;5.50;;;3.30;;
12267;SDS011;6196;48.398;11.736;2023-10-13T02:49:40;6.07;;;3.50;;
12267;SDS011;6196;48.398;11.736;2023-10-13T02:52:12;8.20;;;3.70;;
12267;SDS011;6196;48.398;11.736;2023-10-13T02:54:40;7.80;;;3.87;;
12267;SDS011;6196;48.398;11.736;2023-10-13T02:57:13;4.93;;;3.63;;
12267;SDS011;6196;48.398;11.736;2023-10-13T02:59:43;6.00;;;3.23;;
12267;SDS011;6196;48.398;11.736;2023-10-13T03:02:15;5.40;;;3.67;;
12267;SDS011;6196;48.398;11.736;2023-10-13T03:04:56;6.53;;;3.90;;
12267;SDS011;6196;48.398;11.736;2023-10-13T03:07:36;7.47;;;4.03;;
12267;SDS011;6196;48.398;11.736;2023-10-13T03:10:03;8.57;;;3.93;;
12267;SDS011;6196;48.398;11.736;2023-10-13T03:12:40;4.90;;;3.37;;
12267;SDS011;6196;48.398;11.736;2023-10-13T03:15:07;5.77;;;3.80;;
12267;SDS011;6196;48.398;11.736;2023-10-13T03:17:45;8.33;;;4.07;;
12267;SDS011;6196;48.398;11.736;2023-10-13T03:20:14;6.00;;;3.80;;
12267;SDS011;6196;48.398;11.736;2023-10-13T03:22:48;7.70;;;3.50;;
12267;SDS011;6196;48.398;11.736;2023-10-13T03:25:18;5.77;;;3.30;;
12267;SDS011;6196;48.398;11.736;2023-10-13T03:27:58;3.67;;;2.77;;
12267;SDS011;6196;48.398;11.736;2023-10-13T03:30:27;5.20;;;3.97;;
12267;SDS011;6196;48.398;11.736;2023-10-13T03:33:05;5.00;;;2.90;;
12267;SDS011;6196;48.398;11.736;2023-10-13T03:35:34;6.00;;;3.40;;
12267;SDS011;6196;48.398;11.736;2023-10-13T03:38:09;5.27;;;3.17;;
12267;SDS011;6196;48.398;11.736;2023-10-13T03:40:46;5.37;;;3.60;;
12267;SDS011;6196;48.398;11.736;2023-10-13T03:43:16;5.23;;;2.90;;
12267;SDS011;6196;48.398;11.736;2023-10-13T03:45:49;5.60;;;3.40;;
12267;SDS011;6196;48.398;11.736;2023-10-13T03:48:34;6.90;;;3.50;;
12267;SDS011;6196;48.398;11.736;2023-10-13T03:51:07;6.27;;;3.70;;
12267;SDS011;6196;48.398;11.736;2023-10-13T03:53:37;4.77;;;3.20;;
12267;SDS011;6196;48.398;11.736;2023-10-13T03:56:25;9.13;;;3.83;;
12267;SDS011;6196;48.398;11.736;2023-10-13T03:59:06;6.73;;;3.43;;
12267;SDS011;6196;48.398;11.736;2023-10-13T04:01:46;5.67;;;4.03;;
12267;SDS011;6196;48.398;11.736;2023-10-13T04:04:18;6.03;;;3.93;;
12267;SDS011;6196;48.398;11.736;2023-10-13T04:07:02;5.73;;;3.40;;
12267;SDS011;6196;48.398;11.736;2023-10-13T04:09:36;5.57;;;3.80;;
12267;SDS011;6196;48.398;11.736;2023-10-13T04:12:23;7.97;;;3.70;;
12267;SDS011;6196;48.398;11.736;2023-10-13T04:15:09;9.57;;;4.00;;
12267;SDS011;6196;48.398;11.736;2023-10-13T04:17:44;9.97;;;3.83;;
12267;SDS011;6196;48.398;11.736;2023-10-13T04:20:12;7.60;;;3.80;;
12267;SDS011;6196;48.398;11.736;2023-10-13T04:22:45;5.30;;;3.87;;
12267;SDS011;6196;48.398;11.736;2023-10-13T04:25:15;5.03;;;3.50;;
12267;SDS011;6196;48.398;11.736;2023-10-13T04:31:00;8.60;;;4.30;;
12267;SDS011;6196;48.398;11.736;2023-10-13T04:33:51;6.60;;;3.83;;
12267;SDS011;6196;48.398;11.736;2023-10-13T04:36:22;4.50;;;3.50;;
12267;SDS011;6196;48.398;11.736;2023-10-13T04:39:11;9.37;;;4.10;;
12267;SDS011;6196;48.398;11.736;2023-10-13T04:41:46;7.17;;;4.00;;
12267;SDS011;6196;48.398;11.736;2023-10-13T04:44:16;5.63;;;3.37;;
12267;SDS011;6196;48.398;11.736;2023-10-13T04:47:02;7.20;;;3.80;;
12267;SDS011;6196;48.398;11.736;2023-10-13T04:49:30;5.63;;;3.50;;
12267;SDS011;6196;48.398;11.736;2023-10-13T04:52:16;8.33;;;3.50;;
12267;SDS011;6196;48.398;11.736;2023-10-13T04:55:05;6.60;;;3.87;;
12267;SDS011;6196;48.398;11.736;2023-10-13T04:58:05;7.00;;;3.70;;
12267;SDS011;6196;48.398;11.736;2023-10-13T05:00:41;5.87;;;3.93;;
12267;SDS011;6196;48.398;11.736;2023-10-13T05:03:27;6.00;;;4.00;;
12267;SDS011;6196;48.398;11.736;2023-10-13T05:06:16;6.53;;;4.13;;
12267;SDS011;6196;48.398;11.736;2023-10-13T05:09:01;6.33;;;3.83;;
12267;SDS011;6196;48.398;11.736;2023-10-13T05:11:47;6.97;;;3.93;;
12267;SDS011;6196;48.398;11.736;2023-10-13T05:14:32;5.30;;;4.20;;
12267;SDS011;6196;48.398;11.736;2023-10-13T05:17:21;7.97;;;4.37;;
12267;SDS011;6196;48.398;11.736;2023-10-13T05:20:07;6.97;;;4.13;;
12267;SDS011;6196;48.398;11.736;2023-10-13T05:22:53;4.07;;;3.67;;
12267;SDS011;6196;48.398;11.736;2023-10-13T05:25:39;6.37;;;3.73;;
12267;SDS011;6196;48.398;11.736;2023-10-13T05:28:24;6.73;;;3.57;;
12267;SDS011;6196;48.398;11.736;2023-10-13T05:31:10;4.90;;;4.13;;
12267;SDS011;6196;48.398;11.736;2023-10-13T05:33:55;9.20;;;3.90;;
12267;SDS011;6196;48.398;11.736;2023-10-13T05:36:40;9.27;;;3.83;;
12267;SDS011;6196;48.398;11.736;2023-10-13T05:39:26;5.00;;;4.20;;
12267;SDS011;6196;48.398;11.736;2023-10-13T05:42:12;5.77;;;4.17;;
12267;SDS011;6196;48.398;11.736;2023-10-13T05:44:57;7.00;;;3.70;;
12267;SDS011;6196;48.398;11.736;2023-10-13T05:47:42;6.50;;;3.93;;
12267;SDS011;6196;48.398;11.736;2023-10-13T05:50:10;6.93;;;4.10;;
12267;SDS011;6196;48.398;11.736;2023-10-13T05:52:48;9.07;;;3.93;;
12267;SDS011;6196;48.398;11.736;2023-10-13T05:55:22;10.40;;;4.07;;
12267;SDS011;6196;48.398;11.736;2023-10-13T05:58:12;9.53;;;4.60;;
12267;SDS011;6196;48.398;11.736;2023-10-13T06:00:59;7.93;;;4.37;;
12267;SDS011;6196;48.398;11.736;2023-10-13T06:03:45;7.17;;;4.00;;
12267;SDS011;6196;48.398;11.736;2023-10-13T06:06:30;6.50;;;3.83;;
12267;SDS011;6196;48.398;11.736;2023-10-13T06:09:15;6.57;;;3.73;;
12267;SDS011;6196;48.398;11.736;2023-10-13T06:12:01;5.67;;;3.90;;
12267;SDS011;6196;48.398;11.736;2023-10-13T06:14:46;6.83;;;3.97;;
12267;SDS011;6196;48.398;11.736;2023-10-13T06:17:32;8.03;;;3.87;;
12267;SDS011;6196;48.398;11.736;2023-10-13T06:20:17;7.27;;;3.73;;
12267;SDS011;6196;48.398;11.736;2023-10-13T06:23:03;8.13;;;3.70;;
12267;SDS011;6196;48.398;11.736;2023-10-13T06:25:51;11.53;;;4.33;;
12267;SDS011;6196;48.398;11.736;2023-10-13T06:28:38;9.20;;;4.80;;
12267;SDS011;6196;48.398;11.736;2023-10-13T06:31:09;11.17;;;4.23;;
12267;SDS011;6196;48.398;11.736;2023-10-13T06:33:48;8.10;;;4.30;;
12267;SDS011;6196;48.398;11.736;2023-10-13T06:36:15;10.87;;;3.80;;
12267;SDS011;6196;48.398;11.736;2023-10-13T06:38:44;8.00;;;4.37;;
12267;SDS011;6196;48.398;11.736;2023-10-13T06:41:11;7.80;;;4.17;;
12267;SDS011;6196;48.398;11.736;2023-10-13T06:43:48;9.77;;;4.30;;
12267;SDS011;6196;48.398;11.736;2023-10-13T06:46:26;8.37;;;3.70;;
12267;SDS011;6196;48.398;11.736;2023-10-13T06:48:55;5.73;;;4.00;;
12267;SDS011;6196;48.398;11.736;2023-10-13T06:51:26;9.17;;;4.47;;
12267;SDS011;6196;48.398;11.736;2023-10-13T06:53:57;9.57;;;4.63;;
12267;SDS011;6196;48.398;11.736;2023-10-13T06:56:24;10.73;;;4.30;;
12267;SDS011;6196;48.398;11.736;2023-10-13T06:58:54;7.43;;;4.00;;
12267;SDS011;6196;48.398;11.736;2023-10-13T07:01:26;8.57;;;4.03;;
12267;SDS011;6196;48.398;11.736;2023-10-13T07:03:54;10.07;;;3.80;;
12267;SDS011;6196;48.398;11.736;2023-10-13T07:06:27;8.87;;;4.00;;
12267;SDS011;6196;48.398;11.736;2023-10-13T07:08:54;7.23;;;4.20;;
12267;SDS011;6196;48.398;11.736;2023-10-13T07:11:29;8.70;;;3.90;;
12267;SDS011;6196;48.398;11.736;2023-10-13T07:14:08;9.03;;;4.27;;
12267;SDS011;6196;48.398;11.736;2023-10-13T07:16:54;9.43;;;4.37;;
12267;SDS011;6196;48.398;11.736;2023-10-13T07:19:31;5.60;;;3.83;;
12267;SDS011;6196;48.398;11.736;2023-10-13T07:22:01;6.07;;;3.97;;
12267;SDS011;6196;48.398;11.736;2023-10-13T07:24:49;6.63;;;3.67;;
12267;SDS011;6196;48.398;11.736;2023-10-13T07:29:51;7.63;;;3.67;;
12267;SDS011;6196;48.398;11.736;2023-10-13T07:32:40;10.83;;;4.40;;
12267;SDS011;6196;48.398;11.736;2023-10-13T07:35:17;9.83;;;3.57;;
12267;SDS011;6196;48.398;11.736;2023-10-13T07:37:46;9.17;;;3.63;;
12267;SDS011;6196;48.398;11.736;2023-10-13T07:40:19;10.83;;;3.87;;
12267;SDS011;6196;48.398;11.736;2023-10-13T07:42:53;7.17;;;3.57;;
12267;SDS011;6196;48.398;11.736;2023-10-13T07:45:30;6.40;;;3.50;;
12267;SDS011;6196;48.398;11.736;2023-10-13T07:48:04;8.17;;;3.60;;
12267;SDS011;6196;48.398;11.736;2023-10-13T07:50:39;10.63;;;4.00;;
12267;SDS011;6196;48.398;11.736;2023-10-13T07:53:06;9.40;;;3.80;;
12267;SDS011;6196;48.398;11.736;2023-10-13T07:55:46;9.23;;;3.77;;
12267;SDS011;6196;48.398;11.736;2023-10-13T07:58:13;10.87;;;4.37;;
12267;SDS011;6196;48.398;11.736;2023-10-13T08:00:40;7.77;;;3.80;;
12267;SDS011;6196;48.398;11.736;2023-10-13T08:03:07;6.70;;;3.53;;
12267;SDS011;6196;48.398;11.736;2023-10-13T08:05:44;6.87;;;3.70;;
12267;SDS011;6196;48.398;11.736;2023-10-13T08:08:26;10.30;;;4.00;;
12267;SDS011;6196;48.398;11.736;2023-10-13T08:11:07;8.40;;;3.80;;
12267;SDS011;6196;48.398;11.736;2023-10-13T08:13:52;8.97;;;4.20;;
12267;SDS011;6196;48.398;11.736;2023-10-13T08:16:38;7.87;;;3.93;;
12267;SDS011;6196;48.398;11.736;2023-10-13T08:19:16;9.20;;;3.60;;
12267;SDS011;6196;48.398;11.736;2023-10-13T08:21:55;9.97;;;4.03;;
12267;SDS011;6196;48.398;11.736;2023-10-13T08:24:47;9.63;;;3.97;;
12267;SDS011;6196;48.398;11.736;2023-10-13T08:27:17;8.47;;;3.87;;
12267;SDS011;6196;48.398;11.736;2023-10-13T08:30:02;7.80;;;3.90;;
12267;SDS011;6196;48.398;11.736;2023-10-13T08:32:49;8.30;;;3.50;;
12267;SDS011;6196;48.398;11.736;2023-10-13T08:35:16;12.80;;;4.73;;
12267;SDS011;6196;48.398;11.736;2023-10-13T08:38:01;11.30;;;4.07;;
12267;SDS011;6196;48.398;11.736;2023-10-13T08:40:57;10.57;;;3.47;;
12267;SDS011;6196;48.398;11.736;2023-10-13T08:43:44;9.57;;;4.07;;
12267;SDS011;6196;48.398;11.736;2023-10-13T08:46:30;11.47;;;4.00;;
12267;SDS011;6196;48.398;11.736;2023-10-13T08:49:17;12.13;;;4.17;;
12267;SDS011;6196;48.398;11.736;2023-10-13T08:51:49;7.73;;;3.63;;
12267;SDS011;6196;48.398;11.736;2023-10-13T08:54:17;11.43;;;4.07;;
12267;SDS011;6196;48.398;11.736;2023-10-13T08:57:01;7.97;;;3.80;;
12267;SDS011;6196;48.398;11.736;2023-10-13T08:59:59;10.60;;;3.70;;
12267;SDS011;6196;48.398;11.736;2023-10-13T09:02:46;9.93;;;3.57;;
12267;SDS011;6196;48.398;11.736;2023-10-13T09:05:26;12.60;;;4.00;;
12267;SDS011;6196;48.398;11.736;2023-10-13T09:08:08;13.00;;;3.47;;
12267;SDS011;6196;48.398;11.736;2023-10-13T09:10:36;12.70;;;3.70;;
12267;SDS011;6196;48.398;11.736;2023-10-13T09:13:35;8.30;;;3.23;;
12267;SDS011;6196;48.398;11.736;2023-10-13T09:16:11;12.13;;;3.90;;
12267;SDS011;6196;48.398;11.736;2023-10-13T09:18:48;8.87;;;3.43;;
12267;SDS011;6196;48.398;11.736;2023-10-13T09:21:18;12.43;;;3.97;;
12267;SDS011;6196;48.398;11.736;2023-10-13T09:24:03;9.10;;;3.67;;
12267;SDS011;6196;48.398;11.736;2023-10-13T09:26:49;8.67;;;3.70;;
12267;SDS011;6196;48.398;11.736;2023-10-13T09:29:20;12.73;;;3.87;;
12267;SDS011;6196;48.398;11.736;2023-10-13T09:31:47;13.83;;;4.10;;
12267;SDS011;6196;48.398;11.736;2023-10-13T09:34:29;15.23;;;3.93;;
12267;SDS011;6196;48.398;11.736;2023-10-13T09:37:07;21.07;;;4.47;;
12267;SDS011;6196;48.398;11.736;2023-10-13T09:39:37;19.23;;;4.23;;
12267;SDS011;6196;48.398;11.736;2023-10-13T09:42:11;12.53;;;3.50;;
12267;SDS011;6196;48.398;11.736;2023-10-13T09:44:43;11.13;;;3.70;;
12267;SDS011;6196;48.398;11.736;2023-10-13T09:47:20;14.57;;;3.83;;
12267;SDS011;6196;48.398;11.736;2023-10-13T09:49:59;14.53;;;3.57;;
12267;SDS011;6196;48.398;11.736;2023-10-13T09:52:40;14.20;;;3.67;;
12267;SDS011;6196;48.398;11.736;2023-10-13T09:55:22;9.00;;;3.53;;
12267;SDS011;6196;48.398;11.736;2023-10-13T09:58:02;8.63;;;3.28;;
12267;SDS011;6196;48.398;11.736;2023-10-13T10:00:44;7.43;;;3.05;;
12267;SDS011;6196;48.398;11.736;2023-10-13T10:03:24;8.75;;;3.17;;
12267;SDS011;6196;48.398;11.736;2023-10-13T10:06:06;8.60;;;2.90;;
12267;SDS011;6196;48.398;11.736;2023-10-13T10:08:42;9.23;;;3.33;;
12267;SDS011;6196;48.398;11.736;2023-10-13T10:19:46;12.43;;;3.40;;
12267;SDS011;6196;48.398;11.736;2023-10-13T10:22:33;11.48;;;3.25;;
12267;SDS011;6196;48.398;11.736;2023-10-13T10:25:05;8.15;;;3.50;;
12267;SDS011;6196;48.398;11.736;2023-10-13T10:27:33;7.15;;;2.80;;
12267;SDS011;6196;48.398;11.736;2023-10-13T10:30:00;7.68;;;3.22;;
12267;SDS011;6196;48.398;11.736;2023-10-13T10:35:07;8.13;;;2.65;;
12267;SDS011;6196;48.398;11.736;2023-10-13T10:37:46;6.00;;;2.67;;
12267;SDS011;6196;48.398;11.736;2023-10-13T10:40:14;8.95;;;2.80;;
12267;SDS011;6196;48.398;11.736;2023-10-13T10:43:04;8.55;;;2.90;;
12267;SDS011;6196;48.398;11.736;2023-10-13T10:45:55;5.97;;;2.88;;
12267;SDS011;6196;48.398;11.736;2023-10-13T10:48:30;9.40;;;2.40;;
12267;SDS011;6196;48.398;11.736;2023-10-13T10:51:00;6.15;;;2.20;;
12267;SDS011;6196;48.398;11.736;2023-10-13T10:53:40;7.20;;;2.60;;
12267;SDS011;6196;48.398;11.736;2023-10-13T10:56:13;7.60;;;2.58;;
12267;SDS011;6196;48.398;11.736;2023-10-13T10:58:49;7.68;;;2.85;;
12267;SDS011;6196;48.398;11.736;2023-10-13T11:01:25;5.68;;;2.40;;
12267;SDS011;6196;48.398;11.736;2023-10-13T11:04:05;15.77;;;2.50;;
12267;SDS011;6196;48.398;11.736;2023-10-13T11:06:52;6.95;;;2.30;;
12267;SDS011;6196;48.398;11.736;2023-10-13T11:09:27;10.18;;;2.58;;
12267;SDS011;6196;48.398;11.736;2023-10-13T11:12:13;6.00;;;2.30;;
12267;SDS011;6196;48.398;11.736;2023-10-13T11:14:42;6.88;;;2.65;;
12267;SDS011;6196;48.398;11.736;2023-10-13T11:17:21;8.35;;;2.58;;
12267;SDS011;6196;48.398;11.736;2023-10-13T11:19:57;10.30;;;2.85;;
12267;SDS011;6196;48.398;11.736;2023-10-13T11:22:23;7.75;;;2.20;;
12267;SDS011;6196;48.398;11.736;2023-10-13T11:25:03;7.57;;;2.72;;
12267;SDS011;6196;48.398;11.736;2023-10-13T11:27:36;6.85;;;2.58;;
12267;SDS011;6196;48.398;11.736;2023-10-13T11:30:27;7.45;;;2.30;;
12267;SDS011;6196;48.398;11.736;2023-10-13T11:33:16;9.05;;;2.58;;
12267;SDS011;6196;48.398;11.736;2023-10-13T11:35:47;5.75;;;2.55;;
12267;SDS011;6196;48.398;11.736;2023-10-13T11:38:15;7.78;;;2.63;;
12267;SDS011;6196;48.398;11.736;2023-10-13T11:40:55;10.65;;;2.60;;
12267;SDS011;6196;48.398;11.736;2023-10-13T11:43:36;8.30;;;2.90;;
12267;SDS011;6196;48.398;11.736;2023-10-13T11:46:09;8.05;;;2.83;;
12267;SDS011;6196;48.398;11.736;2023-10-13T11:48:39;8.13;;;2.58;;
12267;SDS011;6196;48.398;11.736;2023-10-13T11:51:10;10.82;;;2.72;;
12267;SDS011;6196;48.398;11.736;2023-10-13T11:53:44;5.57;;;2.88;;
12267;SDS011;6196;48.398;11.736;2023-10-13T11:56:11;6.80;;;2.70;;
12267;SDS011;6196;48.398;11.736;2023-10-13T11:58:40;9.38;;;2.60;;
12267;SDS011;6196;48.398;11.736;2023-10-13T12:01:07;9.07;;;3.22;;
12267;SDS011;6196;48.398;11.736;2023-10-13T12:03:54;8.25;;;2.58;;
12267;SDS011;6196;48.398;11.736;2023-10-13T12:06:43;8.15;;;2.50;;
12267;SDS011;6196;48.398;11.736;2023-10-13T12:09:10;11.02;;;3.03;;
12267;SDS011;6196;48.398;11.736;2023-10-13T12:11:57;7.07;;;2.60;;
12267;SDS011;6196;48.398;11.736;2023-10-13T12:14:26;9.07;;;2.53;;
12267;SDS011;6196;48.398;11.736;2023-10-13T12:16:56;10.00;;;2.70;;
12267;SDS011;6196;48.398;11.736;2023-10-13T12:19:29;10.30;;;2.90;;
12267;SDS011;6196;48.398;11.736;2023-10-13T12:21:57;8.70;;;2.70;;
12267;SDS011;6196;48.398;11.736;2023-10-13T12:24:31;10.38;;;3.00;;
12267;SDS011;6196;48.398;11.736;2023-10-13T12:27:04;7.20;;;2.90;;
12267;SDS011;6196;48.398;11.736;2023-10-13T12:29:51;7.70;;;2.92;;
12267;SDS011;6196;48.398;11.736;2023-10-13T12:32:19;5.45;;;2.65;;
12267;SDS011;6196;48.398;11.736;2023-10-13T12:34:51;7.03;;;2.47;;
12267;SDS011;6196;48.398;11.736;2023-10-13T12:37:28;7.22;;;2.78;;
12267;SDS011;6196;48.398;11.736;2023-10-13T12:40:06;11.27;;;3.40;;
12267;SDS011;6196;48.398;11.736;2023-10-13T12:43:04;8.70;;;3.00;;
12267;SDS011;6196;48.398;11.736;2023-10-13T12:45:50;7.25;;;2.95;;
12267;SDS011;6196;48.398;11.736;2023-10-13T12:48:37;10.43;;;3.33;;
12267;SDS011;6196;48.398;11.736;2023-10-13T12:51:30;10.82;;;3.03;;
12267;SDS011;6196;48.398;11.736;2023-10-13T12:54:00;9.02;;;3.00;;
12267;SDS011;6196;48.398;11.736;2023-10-13T12:56:43;8.80;;;2.67;;
12267;SDS011;6196;48.398;11.736;2023-10-13T12:59:10;8.55;;;2.90;;
12267;SDS011;6196;48.398;11.736;2023-10-13T13:01:41;8.73;;;3.17;;
12267;SDS011;6196;48.398;11.736;2023-10-13T13:04:11;7.68;;;3.08;;
12267;SDS011;6196;48.398;11.736;2023-10-13T13:06:45;8.82;;;3.25;;
12267;SDS011;6196;48.398;11.736;2023-10-13T13:09:13;8.45;;;2.63;;
12267;SDS011;6196;48.398;11.736;2023-10-13T13:11:40;8.80;;;2.72;;
12267;SDS011;6196;48.398;11.736;2023-10-13T13:14:08;7.10;;;3.00;;
12267;SDS011;6196;48.398;11.736;2023-10-13T13:16:36;7.05;;;2.45;;
12267;SDS011;6196;48.398;11.736;2023-10-13T13:19:05;8.95;;;2.90;;
12267;SDS011;6196;48.398;11.736;2023-10-13T13:21:40;11.23;;;2.97;;
12267;SDS011;6196;48.398;11.736;2023-10-13T13:24:07;7.43;;;2.80;;
12267;SDS011;6196;48.398;11.736;2023-10-13T13:26:40;11.20;;;3.15;;
12267;SDS011;6196;48.398;11.736;2023-10-13T13:29:07;10.73;;;3.35;;
12267;SDS011;6196;48.398;11.736;2023-10-13T13:31:37;7.03;;;2.92;;
12267;SDS011;6196;48.398;11.736;2023-10-13T13:34:11;9.45;;;2.85;;
12267;SDS011;6196;48.398;11.736;2023-10-13T13:36:41;8.75;;;2.75;;
12267;SDS011;6196;48.398;11.736;2023-10-13T13:39:11;11.38;;;3.13;;
12267;SDS011;6196;48.398;11.736;2023-10-13T13:41:38;8.35;;;2.55;;
12267;SDS011;6196;48.398;11.736;2023-10-13T13:44:04;6.25;;;3.10;;
12267;SDS011;6196;48.398;11.736;2023-10-13T13:46:41;5.82;;;2.97;;
12267;SDS011;6196;48.398;11.736;2023-10-13T13:49:09;9.80;;;2.75;;
12267;SDS011;6196;48.398;11.736;2023-10-13T13:51:45;8.60;;;2.97;;
12267;SDS011;6196;48.398;11.736;2023-10-13T13:54:18;8.35;;;2.55;;
12267;SDS011;6196;48.398;11.736;2023-10-13T13:56:47;8.15;;;2.88;;
12267;SDS011;6196;48.398;11.736;2023-10-13T13:59:14;8.88;;;2.92;;
12267;SDS011;6196;48.398;11.736;2023-10-13T14:01:46;10.90;;;3.25;;
12267;SDS011;6196;48.398;11.736;2023-10-13T14:04:13;8.13;;;2.88;;
12267;SDS011;6196;48.398;11.736;2023-10-13T14:06:44;9.65;;;2.90;;
12267;SDS011;6196;48.398;11.736;2023-10-13T14:09:11;5.63;;;3.03;;
12267;SDS011;6196;48.398;11.736;2023-10-13T14:11:42;8.32;;;2.53;;
12267;SDS011;6196;48.398;11.736;2023-10-13T14:14:28;6.82;;;2.50;;
12267;SDS011;6196;48.398;11.736;2023-10-13T14:16:55;11.98;;;2.88;;
12267;SDS011;6196;48.398;11.736;2023-10-13T14:19:40;8.05;;;3.00;;
12267;SDS011;6196;48.398;11.736;2023-10-13T14:22:08;9.38;;;3.15;;
12267;SDS011;6196;48.398;11.736;2023-10-13T14:24:38;8.98;;;3.15;;
12267;SDS011;6196;48.398;11.736;2023-10-13T14:27:17;14.45;;;3.38;;
12267;SDS011;6196;48.398;11.736;2023-10-13T14:29:45;8.00;;;3.05;;
12267;SDS011;6196;48.398;11.736;2023-10-13T14:32:14;7.07;;;2.88;;
12267;SDS011;6196;48.398;11.736;2023-10-13T14:34:42;8.00;;;3.00;;
12267;SDS011;6196;48.398;11.736;2023-10-13T14:37:20;6.28;;;2.90;;
12267;SDS011;6196;48.398;11.736;2023-10-13T14:39:57;7.80;;;3.10;;
12267;SDS011;6196;48.398;11.736;2023-10-13T14:42:27;10.65;;;2.80;;
12267;SDS011;6196;48.398;11.736;2023-10-13T14:44:54;9.18;;;3.33;;
12267;SDS011;6196;48.398;11.736;2023-10-13T14:47:25;6.80;;;2.85;;
12267;SDS011;6196;48.398;11.736;2023-10-13T14:49:53;7.95;;;2.90;;
12267;SDS011;6196;48.398;11.736;2023-10-13T14:52:24;9.40;;;3.03;;
12267;SDS011;6196;48.398;11.736;2023-10-13T14:54:51;6.25;;;2.97;;
12267;SDS011;6196;48.398;11.736;2023-10-13T14:57:21;6.13;;;3.10;;
12267;SDS011;6196;48.398;11.736;2023-10-13T14:59:51;11.52;;;3.30;;
12267;SDS011;6196;48.398;11.736;2023-10-13T15:02:21;13.57;;;3.20;;
12267;SDS011;6196;48.398;11.736;2023-10-13T15:04:49;9.60;;;2.88;;
12267;SDS011;6196;48.398;11.736;2023-10-13T15:07:16;8.68;;;3.15;;
12267;SDS011;6196;48.398;11.736;2023-10-13T15:09:45;8.25;;;2.70;;
12267;SDS011;6196;48.398;11.736;2023-10-13T15:12:12;8.55;;;3.10;;
12267;SDS011;6196;48.398;11.736;2023-10-13T15:14:46;8.20;;;2.83;;
12267;SDS011;6196;48.398;11.736;2023-10-13T15:17:13;6.75;;;2.75;;
12267;SDS011;6196;48.398;11.736;2023-10-13T15:19:42;9.07;;;2.95;;
12267;SDS011;6196;48.398;11.736;2023-10-13T15:22:09;7.70;;;2.90;;
12267;SDS011;6196;48.398;11.736;2023-10-13T15:24:43;7.97;;;3.30;;
12267;SDS011;6196;48.398;11.736;2023-10-13T15:27:11;10.57;;;3.17;;
12267;SDS011;6196;48.398;11.736;2023-10-13T15:29:38;9.00;;;3.00;;
12267;SDS011;6196;48.398;11.736;2023-10-13T15:32:05;8.15;;;2.55;;
12267;SDS011;6196;48.398;11.736;2023-10-13T15:34:41;8.38;;;2.97;;
12267;SDS011;6196;48.398;11.736;2023-10-13T15:37:09;9.00;;;2.90;;
12267;SDS011;6196;48.398;11.736;2023-10-13T15:39:38;8.18;;;2.72;;
12267;SDS011;6196;48.398;11.736;2023-10-13T15:42:06;7.78;;;3.20;;
12267;SDS011;6196;48.398;11.736;2023-10-13T15:44:33;8.32;;;3.30;;
12267;SDS011;6196;48.398;11.736;2023-10-13T15:47:01;8.82;;;3.30;;
12267;SDS011;6196;48.398;11.736;2023-10-13T15:49:32;6.60;;;3.38;;
12267;SDS011;6196;48.398;11.736;2023-10-13T15:52:00;8.52;;;3.38;;
12267;SDS011;6196;48.398;11.736;2023-10-13T15:54:27;9.65;;;3.25;;